Lexington, KY

9:15 AM EST en Diciembre 04, 2016 (GMT -0500)
The Island Weather | | Change Station

Alt 968 ft 38.00 °N, 84.46 °W | Updated 4 seconds ago

Overcast
Nublado
37.5 ° F
Sensación térmica 34 ° F
N
4.0
Viento Variable Viento desde ESE

Hoy
Alta -- | Baja -- ° F
--% Posibilidad de precipitaciones
Ayer
Alta -- | Baja -- ° F
Precip. -- pul
Presión 30.16 pul
Visibilidad 10.0 Millas
Nubes Muy nublado 5000 ft
Muy nublado 6000 ft
Nublado 10000 ft
Vientos helados 34 ° F
Punto de rocío 37 ° F
Humedad 98%
Precipitaciones pul
Espesor de la nieve No disponible.
7:38 AM 5:18 PM
Creciente, 23% visible
METAR KLEX 041354Z 10008KT 10SM BKN050 BKN060 OVC100 04/00 A3015 RMK AO2 RAB1258E47 SLP213 P0000 T00390000
Presión 30.16 pul
Visibilidad 10.0 Millas
Nubes Muy nublado 5000 ft
Muy nublado 6000 ft
Nublado 10000 ft
Vientos helados 34 ° F
Punto de rocío 37 ° F
Humedad 98%
Precipitaciones pul
Espesor de la nieve No disponible.
7:38 AM 5:18 PM
Creciente, 23% visible
METAR KLEX 041354Z 10008KT 10SM BKN050 BKN060 OVC100 04/00 A3015 RMK AO2 RAB1258E47 SLP213 P0000 T00390000

10-Day Weather Forecast

Almanac

Astronomía

Dec. 04, 2016 Salida Puesta
Hora real
Crepúsculo civil
Crepúsculo náutico
Crepúsculo astronómico
Luna
Horas de luz
Horas de luz
Tomorrow will be .
, % of the Moon is Illuminated

Extremos de hoy

Máximos del estado Bajos del estado

Community

WunderPhotos

Upload Photos

1,955,598 ¡fotos cargadas!

WunderBlog® & News

Nearby

Calidad del aire

  Calidad del aire Índice AQ Contaminante
Not available.

Grosos de nieve

Estación Profundido Altura

Actividad de terremotos

Ciudad Distance Mag. Tiempo y dato
Magnitud mínima muestra es 2,5.

Temperaturas de aguas costeras

Lugar Temperatura

Stations

Estaciones meteorológicas cercanas

Ubicación de la estación Temp. Vientos helados Punto de rocío Humedad Viento Precip. Alt Actualizado Tipo
                   

Watches & Warnings

There are currently no watches in effect.